Time;durP1;ratioP1;P1;durP2;ratioP2;P2;SDS_P1;SDS_P2;PMS_P1;PMS_P2;Temp;Humidity;BMP_temperature;BMP_pressure;BME280_temperature;BME280_humidity;BME280_pressure;Samples;Min_cycle;Max_cycle;Signal;HPM_P1;HPM_P2
2021/03/14 00:01:51;;;;;;;;;;;;;;;16.46;38.87;98601.84;4414227;32;19973;-52
2021/03/14 00:04:17;;;;;;;;;;;;;;;16.45;38.77;98603.59;4414712;32;19987;-49
2021/03/14 00:06:43;;;;;;;;;;;;;;;16.42;39.00;98611.47;4413275;32;20001;-51
2021/03/14 00:09:08;;;;;;;;;;;;;;;16.41;38.86;98618.47;4412294;32;19981;-49
2021/03/14 00:11:34;;;;;;;;;;;;;;;16.43;38.80;98615.84;4414779;32;19995;-49
2021/03/14 00:14:00;;;;;;;;;;;;;;;16.42;39.05;98627.22;4413568;32;20375;-51
2021/03/14 00:16:26;;;;;;;;;;;;;;;16.44;38.96;98625.47;4414139;32;19985;-49
2021/03/14 00:18:52;;;;;;;;;;;;;;;16.41;38.86;98633.38;4413917;32;19954;-47
2021/03/14 00:21:19;;;;;;;;;;;;;;;16.38;39.00;98636.00;4413625;32;20724;-52
2021/03/14 00:23:45;;;;;;;;;;;;;;;16.43;39.00;98642.13;4414738;32;19988;-49
2021/03/14 00:26:11;;;;;;;;;;;;;;;16.38;38.95;98638.63;4414266;32;19962;-48
2021/03/14 00:28:37;;;;;;;;;;;;;;;16.39;38.90;98629.87;4413480;32;19953;-48
2021/03/14 00:31:03;;;;;;;;;;;;;;;16.42;38.97;98632.50;4414015;32;19997;-49
2021/03/14 00:33:29;;;;;;;;;;;;;;;16.40;38.91;98631.63;4413827;32;19950;-49
2021/03/14 00:35:55;;;;;;;;;;;;;;;16.40;39.03;98627.22;4413474;32;19960;-49
2021/03/14 00:38:21;;;;;;;;;;;;;;;16.38;38.96;98633.38;4411776;32;19993;-50
2021/03/14 00:40:47;;;;;;;;;;;;;;;16.37;39.08;98629.00;4411847;32;20404;-49
2021/03/14 00:43:12;;;;;;;;;;;;;;;16.42;38.86;98640.38;4415090;32;20046;-51
2021/03/14 00:45:38;;;;;;;;;;;;;;;16.38;38.87;98644.75;4417267;32;19957;-51
2021/03/14 00:48:04;;;;;;;;;;;;;;;16.37;39.00;98648.25;4415882;32;19966;-50
2021/03/14 00:50:30;;;;;;;;;;;;;;;16.39;39.03;98650.88;4415300;32;19973;-49
2021/03/14 00:52:56;;;;;;;;;;;;;;;16.34;38.91;98647.34;4416694;32;20303;-50
2021/03/14 00:55:22;;;;;;;;;;;;;;;16.37;38.93;98655.25;4417085;32;19958;-48
2021/03/14 00:57:48;;;;;;;;;;;;;;;16.34;38.97;98657.88;4417079;32;19958;-50
2021/03/14 01:00:14;;;;;;;;;;;;;;;16.34;38.96;98664.00;4416527;32;20078;-49
2021/03/14 01:02:39;;;;;;;;;;;;;;;16.29;39.02;98671.88;4416681;32;20041;-47
2021/03/14 01:05:05;;;;;;;;;;;;;;;16.34;38.97;98673.63;4416983;32;19958;-49
2021/03/14 01:07:31;;;;;;;;;;;;;;;16.39;38.79;98677.16;4416426;32;19996;-52
2021/03/14 01:09:57;;;;;;;;;;;;;;;16.37;38.78;98671.03;4417189;32;20051;-46
2021/03/14 01:12:23;;;;;;;;;;;;;;;16.36;38.87;98677.13;4417117;32;20033;-52
2021/03/14 01:14:49;;;;;;;;;;;;;;;16.34;38.88;98689.37;4416707;32;19954;-50
2021/03/14 01:17:15;;;;;;;;;;;;;;;16.30;39.07;98694.62;4415486;32;19962;-48
2021/03/14 01:19:41;;;;;;;;;;;;;;;16.30;38.89;98699.91;4417317;32;19977;-50
2021/03/14 01:22:07;;;;;;;;;;;;;;;16.27;39.16;98699.00;4415713;32;20012;-47
2021/03/14 01:24:33;;;;;;;;;;;;;;;16.25;39.16;98701.66;4417262;32;19954;-53
2021/03/14 01:26:59;;;;;;;;;;;;;;;16.25;39.06;98704.28;4415517;32;20064;-48
2021/03/14 01:29:24;;;;;;;;;;;;;;;16.28;39.11;98711.25;4416789;32;19962;-49
2021/03/14 01:31:50;;;;;;;;;;;;;;;16.27;39.12;98715.66;4417537;32;19954;-51
2021/03/14 01:34:16;;;;;;;;;;;;;;;16.30;38.93;98715.66;4416472;32;20616;-50
2021/03/14 01:36:42;;;;;;;;;;;;;;;16.29;39.01;98723.53;4415840;32;19961;-51
2021/03/14 01:39:08;;;;;;;;;;;;;;;16.27;39.06;98726.16;4416236;32;19959;-51
2021/03/14 01:41:34;;;;;;;;;;;;;;;16.25;39.11;98727.91;4410926;32;19963;-49
2021/03/14 01:44:00;;;;;;;;;;;;;;;16.27;39.13;98731.41;4409986;32;19997;-49
2021/03/14 01:46:26;;;;;;;;;;;;;;;16.26;39.04;98734.91;4416017;32;19958;-50
2021/03/14 01:48:52;;;;;;;;;;;;;;;16.28;38.87;98737.53;4415900;32;20002;-48
2021/03/14 01:51:18;;;;;;;;;;;;;;;16.28;39.06;98733.16;4412482;32;19969;-48
2021/03/14 01:53:44;;;;;;;;;;;;;;;16.24;38.94;98747.19;4416821;32;20012;-45
2021/03/14 01:56:09;;;;;;;;;;;;;;;16.27;38.86;98746.28;4416069;32;20319;-45
2021/03/14 01:58:35;;;;;;;;;;;;;;;16.25;39.10;98733.16;4415971;32;19962;-49
2021/03/14 02:01:01;;;;;;;;;;;;;;;16.24;38.99;98744.56;4416236;32;19962;-48
2021/03/14 02:03:27;;;;;;;;;;;;;;;16.24;39.11;98736.66;4415723;32;19954;-50
2021/03/14 02:05:53;;;;;;;;;;;;;;;16.26;39.01;98744.53;4416652;32;20009;-46
2021/03/14 02:08:19;;;;;;;;;;;;;;;16.22;39.05;98743.63;4415204;32;20369;-51
2021/03/14 02:10:45;;;;;;;;;;;;;;;16.26;38.90;98740.16;4415119;32;19962;-52
2021/03/14 02:13:11;;;;;;;;;;;;;;;16.24;39.08;98741.03;4416583;32;19978;-49
2021/03/14 02:15:36;;;;;;;;;;;;;;;16.29;38.99;98742.81;4416950;32;20002;-53
2021/03/14 02:18:02;;;;;;;;;;;;;;;16.27;38.96;98744.56;4415293;32;19956;-51
2021/03/14 02:20:28;;;;;;;;;;;;;;;16.23;39.05;98755.91;4415127;32;20022;-48
2021/03/14 02:22:54;;;;;;;;;;;;;;;16.23;38.98;98761.16;4415538;32;19954;-50
2021/03/14 02:25:20;;;;;;;;;;;;;;;16.26;38.93;98765.53;4410573;32;20006;-49
2021/03/14 02:27:46;;;;;;;;;;;;;;;16.26;38.94;98766.44;4400398;32;20500;-45
2021/03/14 02:30:12;;;;;;;;;;;;;;;16.27;38.78;98765.56;4401321;32;19988;-49
2021/03/14 02:32:38;;;;;;;;;;;;;;;16.23;38.88;98771.66;4415597;32;19953;-50
2021/03/14 02:35:04;;;;;;;;;;;;;;;16.22;39.05;98775.16;4415951;32;19993;-47
2021/03/14 02:37:30;;;;;;;;;;;;;;;16.26;38.96;98774.31;4414323;32;19976;-46
2021/03/14 02:39:55;;;;;;;;;;;;;;;16.20;39.01;98771.66;4416217;32;20343;-49
2021/03/14 02:42:21;;;;;;;;;;;;;;;16.24;38.93;98777.81;4415669;32;20010;-51
2021/03/14 02:44:47;;;;;;;;;;;;;;;16.19;39.07;98776.91;4415548;32;19962;-50
2021/03/14 02:47:13;;;;;;;;;;;;;;;16.19;39.09;98780.41;4414276;32;20000;-51
2021/03/14 02:49:39;;;;;;;;;;;;;;;16.15;39.10;98783.91;4415160;32;20003;-47
2021/03/14 02:52:05;;;;;;;;;;;;;;;16.20;38.88;98784.78;4412443;32;20010;-49
2021/03/14 02:54:31;;;;;;;;;;;;;;;16.21;39.06;98786.53;4415975;32;20283;-47
2021/03/14 02:56:57;;;;;;;;;;;;;;;16.18;39.13;98790.94;4414890;32;19958;-48
2021/03/14 02:59:23;;;;;;;;;;;;;;;16.13;39.05;98797.00;4415051;32;20053;-48
2021/03/14 03:01:49;;;;;;;;;;;;;;;16.17;39.18;98805.78;4412781;32;19962;-44
2021/03/14 03:04:14;;;;;;;;;;;;;;;16.16;38.98;98806.66;4415741;32;20513;-50
2021/03/14 03:06:40;;;;;;;;;;;;;;;16.15;39.13;98810.16;4414091;32;19965;-49
2021/03/14 03:09:06;;;;;;;;;;;;;;;16.18;39.05;98823.31;4414916;32;19972;-49
2021/03/14 03:11:32;;;;;;;;;;;;;;;16.16;39.03;98833.78;4414383;32;20052;-48
2021/03/14 03:13:58;;;;;;;;;;;;;;;16.14;39.19;98834.69;4415507;32;20319;-51
2021/03/14 03:16:24;;;;;;;;;;;;;;;16.15;39.03;98841.69;4413999;32;19997;-51
2021/03/14 03:18:50;;;;;;;;;;;;;;;16.08;39.20;98850.37;4414067;32;19966;-52
2021/03/14 03:21:16;;;;;;;;;;;;;;;16.11;39.07;98855.66;4415059;32;20798;-45
2021/03/14 03:23:42;;;;;;;;;;;;;;;16.10;39.09;98848.63;4415944;32;19954;-51
2021/03/14 03:26:08;;;;;;;;;;;;;;;16.09;39.29;98852.13;4415138;32;20394;-52
2021/03/14 03:28:34;;;;;;;;;;;;;;;16.10;39.25;98849.53;4415333;32;19958;-52
2021/03/14 03:31:00;;;;;;;;;;;;;;;16.13;39.05;98854.78;4415216;32;20333;-52
2021/03/14 03:33:25;;;;;;;;;;;;;;;16.18;38.99;98854.81;4414211;32;20008;-47
2021/03/14 03:35:51;;;;;;;;;;;;;;;16.18;38.96;98857.44;4414893;32;19985;-49
2021/03/14 03:38:17;;;;;;;;;;;;;;;16.25;38.88;98856.63;4413835;32;20290;-47
2021/03/14 03:40:43;;;;;;;;;;;;;;;16.21;38.82;98857.47;4415171;32;20393;-46
2021/03/14 03:43:09;;;;;;;;;;;;;;;16.15;38.89;98857.44;4411481;32;20021;-49
2021/03/14 03:45:35;;;;;;;;;;;;;;;16.12;39.07;98858.28;4414093;32;20395;-49
2021/03/14 03:48:01;;;;;;;;;;;;;;;16.14;39.06;98866.19;4413899;32;19951;-49
2021/03/14 03:50:27;;;;;;;;;;;;;;;16.19;38.90;98863.59;4414267;32;19958;-48
2021/03/14 03:52:53;;;;;;;;;;;;;;;16.09;39.02;98871.41;4414531;32;19966;-50
2021/03/14 03:55:19;;;;;;;;;;;;;;;16.06;39.20;98881.91;4414094;32;20036;-48
2021/03/14 03:57:44;;;;;;;;;;;;;;;16.14;38.80;98882.81;4412587;32;20331;-52
2021/03/14 04:00:10;;;;;;;;;;;;;;;16.07;39.20;98888.03;4413876;32;20007;-48
2021/03/14 04:02:36;;;;;;;;;;;;;;;16.01;39.19;98880.97;4414679;32;20034;-51
2021/03/14 04:05:02;;;;;;;;;;;;;;;16.05;39.17;98881.88;4414238;32;20004;-50
2021/03/14 04:07:28;;;;;;;;;;;;;;;16.01;39.20;98895.00;4412567;32;19985;-50
2021/03/14 04:09:54;;;;;;;;;;;;;;;16.02;39.24;98894.13;4414902;32;20354;-51
2021/03/14 04:12:20;;;;;;;;;;;;;;;15.99;39.30;98901.09;4414769;32;19954;-49
2021/03/14 04:14:46;;;;;;;;;;;;;;;15.97;39.27;98901.06;4410750;32;20020;-49
2021/03/14 04:17:12;;;;;;;;;;;;;;;16.08;39.08;98902.91;4412840;32;20057;-46
2021/03/14 04:19:38;;;;;;;;;;;;;;;16.04;39.22;98903.75;4414416;32;19946;-50
2021/03/14 04:22:04;;;;;;;;;;;;;;;15.99;39.25;98920.38;4413578;32;20339;-47
2021/03/14 04:24:30;;;;;;;;;;;;;;;16.05;38.97;98929.16;4415239;32;19942;-51
2021/03/14 04:26:55;;;;;;;;;;;;;;;15.99;39.22;98938.75;4414953;32;19981;-51
2021/03/14 04:29:21;;;;;;;;;;;;;;;16.01;39.07;98952.78;4399791;32;20335;-47
2021/03/14 04:31:47;;;;;;;;;;;;;;;16.08;39.06;98956.31;4399967;32;19962;-50
2021/03/14 04:34:13;;;;;;;;;;;;;;;16.08;38.90;98960.69;4398543;32;20819;-49
2021/03/14 04:36:39;;;;;;;;;;;;;;;16.01;39.11;98968.53;4409349;32;19997;-49
2021/03/14 04:39:05;;;;;;;;;;;;;;;15.98;39.15;98971.09;4414172;32;19954;-48
2021/03/14 04:41:31;;;;;;;;;;;;;;;16.00;39.13;98969.41;4415278;32;19946;-51
2021/03/14 04:43:57;;;;;;;;;;;;;;;16.05;39.05;98976.41;4414164;32;19987;-48
2021/03/14 04:46:23;;;;;;;;;;;;;;;16.09;38.93;98989.59;4414719;32;20485;-49
2021/03/14 04:48:49;;;;;;;;;;;;;;;16.06;39.02;98993.94;4414328;32;19997;-47
2021/03/14 04:51:14;;;;;;;;;;;;;;;16.07;38.95;99011.44;4414471;32;19981;-50
2021/03/14 04:53:40;;;;;;;;;;;;;;;16.08;38.86;99023.69;4415507;32;19953;-47
2021/03/14 04:56:06;;;;;;;;;;;;;;;16.05;38.96;99036.81;4414377;32;19961;-48
2021/03/14 04:58:32;;;;;;;;;;;;;;;16.12;38.86;99046.53;4414232;32;20017;-48
2021/03/14 05:00:58;;;;;;;;;;;;;;;16.05;38.87;99045.59;4414103;32;20572;-50
2021/03/14 05:03:24;;;;;;;;;;;;;;;16.05;38.91;99050.84;4414721;32;19966;-53
2021/03/14 05:05:50;;;;;;;;;;;;;;;16.02;38.98;99056.94;4414956;32;19945;-47
2021/03/14 05:08:16;;;;;;;;;;;;;;;16.02;39.06;99059.56;4413646;32;19969;-52
2021/03/14 05:10:42;;;;;;;;;;;;;;;16.05;38.92;99061.34;4403864;32;19970;-50
2021/03/14 05:13:08;;;;;;;;;;;;;;;16.08;38.91;99070.97;4398840;32;20370;-50
2021/03/14 05:15:34;;;;;;;;;;;;;;;15.98;38.95;99060.38;4401093;32;19979;-50
2021/03/14 05:18:00;;;;;;;;;;;;;;;16.07;38.78;99067.50;4402238;32;19950;-48
2021/03/14 05:20:26;;;;;;;;;;;;;;;15.99;38.88;99072.66;4399518;32;19951;-47
2021/03/14 05:22:52;;;;;;;;;;;;;;;15.97;39.03;99079.63;4399256;32;20377;-49
2021/03/14 05:25:18;;;;;;;;;;;;;;;15.96;39.04;99080.50;4399335;32;19981;-48
2021/03/14 05:27:49;;;;;;;;;;;;;;;15.96;39.11;99087.50;4400401;32;20008;-49
2021/03/14 05:30:15;;;;;;;;;;;;;;;15.99;38.96;99091.06;4416172;32;19958;-50
2021/03/14 05:32:40;;;;;;;;;;;;;;;15.97;38.97;99105.88;4417692;32;19996;-47
2021/03/14 05:35:06;;;;;;;;;;;;;;;15.92;38.97;99099.72;4417386;32;20015;-48
2021/03/14 05:37:32;;;;;;;;;;;;;;;15.90;39.14;99109.31;4416621;32;20662;-51
2021/03/14 05:39:58;;;;;;;;;;;;;;;15.93;39.08;99109.34;4416054;32;19965;-43
2021/03/14 05:42:24;;;;;;;;;;;;;;;15.96;38.99;99111.13;4415899;32;20485;-47
2021/03/14 05:44:50;;;;;;;;;;;;;;;15.97;38.97;99121.62;4416579;32;19962;-46
2021/03/14 05:47:16;;;;;;;;;;;;;;;15.97;38.91;99116.37;4416168;32;19968;-49
2021/03/14 05:49:42;;;;;;;;;;;;;;;15.98;38.95;99123.41;4417270;32;19991;-50
2021/03/14 05:52:07;;;;;;;;;;;;;;;15.94;39.02;99129.50;4417081;32;19961;-49
2021/03/14 05:54:34;;;;;;;;;;;;;;;15.95;39.02;99131.25;4417624;32;19969;-47
2021/03/14 05:57:00;;;;;;;;;;;;;;;15.94;39.03;99132.13;4416741;32;20010;-52
2021/03/14 05:59:26;;;;;;;;;;;;;;;15.92;38.98;99123.34;4416307;32;19995;-47
2021/03/14 06:01:52;;;;;;;;;;;;;;;15.88;39.02;99132.91;4418324;32;19969;-50
2021/03/14 06:04:18;;;;;;;;;;;;;;;15.86;39.26;99133.72;4417112;32;19976;-46
2021/03/14 06:06:46;;;;;;;;;;;;;;;15.81;39.20;99136.34;4417911;32;19962;-48
2021/03/14 06:09:12;;;;;;;;;;;;;;;15.91;39.00;99133.81;4415150;32;19961;-46
2021/03/14 06:11:38;;;;;;;;;;;;;;;15.83;39.18;99144.22;4417127;32;20385;-50
2021/03/14 06:14:04;;;;;;;;;;;;;;;15.88;39.11;99147.78;4417016;32;20014;-45
2021/03/14 06:16:30;;;;;;;;;;;;;;;15.95;39.01;99144.38;4416604;32;19958;-51
2021/03/14 06:18:56;;;;;;;;;;;;;;;15.94;38.88;99147.00;4416380;32;19993;-44
2021/03/14 06:21:22;;;;;;;;;;;;;;;15.89;39.14;99154.78;4417388;32;19954;-48
2021/03/14 06:23:47;;;;;;;;;;;;;;;15.91;38.95;99157.44;4416308;32;19957;-50
2021/03/14 06:26:13;;;;;;;;;;;;;;;15.90;39.11;99159.22;4416320;32;20001;-47
2021/03/14 06:28:39;;;;;;;;;;;;;;;15.85;39.13;99161.75;4416579;32;19966;-49
2021/03/14 06:31:05;;;;;;;;;;;;;;;15.84;39.18;99169.59;4415963;32;20358;-48
2021/03/14 06:33:31;;;;;;;;;;;;;;;15.84;39.11;99167.88;4416993;32;19942;-50
2021/03/14 06:35:57;;;;;;;;;;;;;;;15.83;39.19;99165.22;4416162;32;19997;-49
2021/03/14 06:38:23;;;;;;;;;;;;;;;15.88;39.08;99171.41;4415026;32;20554;-48
2021/03/14 06:40:49;;;;;;;;;;;;;;;15.89;39.04;99175.78;4410867;32;19954;-46
2021/03/14 06:43:15;;;;;;;;;;;;;;;15.81;39.20;99177.44;4413977;32;20032;-46
2021/03/14 06:45:41;;;;;;;;;;;;;;;15.84;39.19;99193.22;4413629;32;20013;-46
2021/03/14 06:48:08;;;;;;;;;;;;;;;16.01;38.78;99196.09;4412471;32;20002;-46
2021/03/14 06:50:34;;;;;;;;;;;;;;;16.06;38.75;99198.75;4415254;32;19972;-49
2021/03/14 06:53:00;;;;;;;;;;;;;;;16.02;38.84;99203.09;4411916;32;19972;-47
2021/03/14 06:55:26;;;;;;;;;;;;;;;16.02;38.90;99213.59;4410339;32;19962;-47
2021/03/14 06:57:52;;;;;;;;;;;;;;;16.01;38.90;99223.25;4414929;32;19983;-48
2021/03/14 07:00:18;;;;;;;;;;;;;;;15.96;39.03;99219.66;4413498;32;19962;-48
2021/03/14 07:02:44;;;;;;;;;;;;;;;15.96;39.10;99230.16;4413878;32;19996;-49
2021/03/14 07:05:10;;;;;;;;;;;;;;;15.99;39.11;99240.72;4413887;32;19953;-46
2021/03/14 07:07:37;;;;;;;;;;;;;;;16.01;38.96;99243.34;4413707;32;20002;-51
2021/03/14 07:10:03;;;;;;;;;;;;;;;16.04;38.85;99237.28;4413615;32;19962;-51
2021/03/14 07:12:29;;;;;;;;;;;;;;;16.06;38.80;99251.28;4412891;32;19964;-46
2021/03/14 07:14:55;;;;;;;;;;;;;;;16.01;38.91;99259.09;4413237;32;20323;-51
2021/03/14 07:17:20;;;;;;;;;;;;;;;16.02;38.88;99251.25;4412594;32;19954;-46
2021/03/14 07:19:46;;;;;;;;;;;;;;;16.05;38.82;99262.66;4415029;32;19977;-50
2021/03/14 07:22:13;;;;;;;;;;;;;;;16.01;38.90;99265.25;4414125;32;19961;-52
2021/03/14 07:24:39;;;;;;;;;;;;;;;16.07;38.80;99268.81;4413020;32;19992;-49
2021/03/14 07:27:05;;;;;;;;;;;;;;;16.08;38.76;99281.06;4412763;32;19965;-50
2021/03/14 07:29:31;;;;;;;;;;;;;;;16.06;38.81;99288.97;4413772;32;20050;-49
2021/03/14 07:31:57;;;;;;;;;;;;;;;16.09;38.76;99282.84;4414568;32;19954;-50
2021/03/14 07:34:23;;;;;;;;;;;;;;;16.06;38.80;99288.06;4414212;32;20045;-49
2021/03/14 07:36:49;;;;;;;;;;;;;;;16.12;38.69;99296.03;4414135;32;19959;-47
2021/03/14 07:39:15;;;;;;;;;;;;;;;16.12;38.71;99290.78;4413209;32;19996;-52
2021/03/14 07:41:42;;;;;;;;;;;;;;;16.18;38.60;99297.84;4414833;32;19993;-50
2021/03/14 07:44:08;;;;;;;;;;;;;;;16.16;38.60;99297.81;4413401;32;19959;-46
2021/03/14 07:46:34;;;;;;;;;;;;;;;16.30;38.34;99304.12;4414725;32;19977;-48
2021/03/14 07:49:00;;;;;;;;;;;;;;;16.41;38.17;99303.38;4411305;32;19954;-51
2021/03/14 07:51:26;;;;;;;;;;;;;;;16.48;38.01;99305.19;4410877;32;19976;-48
2021/03/14 07:53:52;;;;;;;;;;;;;;;16.50;37.96;99306.13;4414827;32;19957;-49
2021/03/14 07:56:18;;;;;;;;;;;;;;;16.55;37.88;99304.41;4412808;32;19950;-46
2021/03/14 07:58:44;;;;;;;;;;;;;;;16.55;37.91;99308.81;4410969;32;19992;-45
2021/03/14 08:01:10;;;;;;;;;;;;;;;16.51;37.98;99313.13;4412802;32;19974;-52
2021/03/14 08:03:36;;;;;;;;;;;;;;;16.53;37.95;99311.41;4414312;32;20323;-49
2021/03/14 08:06:02;;;;;;;;;;;;;;;16.57;37.88;99320.22;4413526;32;19958;-47
2021/03/14 08:08:28;;;;;;;;;;;;;;;16.60;37.79;99319.34;4411101;32;20012;-48
2021/03/14 08:10:54;;;;;;;;;;;;;;;16.58;37.81;99328.09;4413716;32;19997;-47
2021/03/14 08:13:20;;;;;;;;;;;;;;;16.62;37.85;99334.28;4412605;32;20383;-50
2021/03/14 08:15:46;;;;;;;;;;;;;;;16.57;37.92;99331.59;4413349;32;20009;-50
2021/03/14 08:18:12;;;;;;;;;;;;;;;16.57;37.91;99338.59;4410691;32;19973;-46
2021/03/14 08:20:38;;;;;;;;;;;;;;;16.48;38.06;99341.97;4413939;32;19973;-49
2021/03/14 08:23:05;;;;;;;;;;;;;;;16.56;37.97;99347.34;4413983;32;20049;-49
2021/03/14 08:25:31;;;;;;;;;;;;;;;16.53;38.01;99345.56;4414302;32;20337;-47
2021/03/14 08:27:57;;;;;;;;;;;;;;;16.58;37.92;99351.75;4413742;32;19966;-49
2021/03/14 08:30:24;;;;;;;;;;;;;;;16.58;37.91;99357.00;4414180;32;20048;-50
2021/03/14 08:32:50;;;;;;;;;;;;;;;16.61;37.88;99358.78;4411380;32;20001;-47
2021/03/14 08:35:16;;;;;;;;;;;;;;;16.55;37.97;99354.34;4413592;32;19966;-51
2021/03/14 08:37:42;;;;;;;;;;;;;;;16.55;37.98;99349.09;4413377;32;19957;-48
2021/03/14 08:40:08;;;;;;;;;;;;;;;16.58;37.95;99356.13;4411647;32;19954;-51
2021/03/14 08:42:34;;;;;;;;;;;;;;;16.65;37.85;99363.22;4415151;32;20027;-49
2021/03/14 08:44:59;;;;;;;;;;;;;;;16.57;37.93;99365.75;4414331;32;19947;-49
2021/03/14 08:47:25;;;;;;;;;;;;;;;16.57;38.04;99371.00;4412921;32;19966;-48
2021/03/14 08:49:55;;;;;;;;;;;;;;;16.67;37.84;99376.37;4411279;32;19958;-50
2021/03/14 08:52:21;;;;;;;;;;;;;;;16.67;37.73;99376.37;4413170;32;20016;-48
2021/03/14 08:54:48;;;;;;;;;;;;;;;16.70;37.72;99379.03;4414125;32;19958;-46
2021/03/14 08:57:14;;;;;;;;;;;;;;;16.57;37.94;99368.37;4412416;32;20013;-45
2021/03/14 08:59:40;;;;;;;;;;;;;;;16.55;38.06;99382.41;4414343;32;19958;-52
2021/03/14 09:02:05;;;;;;;;;;;;;;;16.60;37.92;99385.06;4410920;32;19950;-50
2021/03/14 09:04:31;;;;;;;;;;;;;;;16.63;37.74;99385.13;4412460;32;20002;-49
2021/03/14 09:06:57;;;;;;;;;;;;;;;16.56;37.88;99387.66;4415565;32;20013;-45
2021/03/14 09:09:23;;;;;;;;;;;;;;;16.62;37.95;99388.59;4416033;32;20046;-47
2021/03/14 09:11:49;;;;;;;;;;;;;;;16.53;37.99;99397.22;4416847;32;20663;-50
2021/03/14 09:14:15;;;;;;;;;;;;;;;16.50;38.08;99399.84;4414421;32;19954;-48
2021/03/14 09:16:41;;;;;;;;;;;;;;;16.60;37.92;99391.22;4417513;32;19958;-49
2021/03/14 09:19:07;;;;;;;;;;;;;;;16.56;37.83;99394.66;4416305;32;19957;-49
2021/03/14 09:21:32;;;;;;;;;;;;;;;16.66;37.75;99400.91;4415789;32;19954;-49
2021/03/14 09:23:58;;;;;;;;;;;;;;;16.62;37.76;99399.13;4415618;32;20040;-51
2021/03/14 09:26:24;;;;;;;;;;;;;;;16.62;37.84;99391.25;4415029;32;20001;-44
2021/03/14 09:28:50;;;;;;;;;;;;;;;16.61;38.05;99402.62;4414482;32;19994;-51
2021/03/14 09:31:16;;;;;;;;;;;;;;;16.53;38.05;99397.22;4414859;32;19969;-46
2021/03/14 09:33:42;;;;;;;;;;;;;;;16.62;38.09;99396.50;4417935;32;19946;-47
2021/03/14 09:36:08;;;;;;;;;;;;;;;16.64;37.73;99392.13;4416777;32;20384;-50
2021/03/14 09:38:34;;;;;;;;;;;;;;;16.56;37.87;99403.41;4416878;32;20025;-50
2021/03/14 09:41:01;;;;;;;;;;;;;;;16.53;37.91;99395.50;4416147;32;19995;-49
2021/03/14 09:43:28;;;;;;;;;;;;;;;16.60;37.61;99395.56;4417173;32;19998;-49
2021/03/14 09:45:54;;;;;;;;;;;;;;;16.56;37.78;99400.78;4415816;32;20034;-47
2021/03/14 09:48:20;;;;;;;;;;;;;;;16.53;37.88;99400.75;4415393;32;20292;-49
2021/03/14 09:50:46;;;;;;;;;;;;;;;16.58;37.69;99408.72;4416369;32;19973;-51
2021/03/14 09:53:12;;;;;;;;;;;;;;;16.53;37.77;99413.91;4416240;32;19984;-50
2021/03/14 09:55:38;;;;;;;;;;;;;;;16.58;37.74;99414.84;4418112;32;19969;-49
2021/03/14 09:58:04;;;;;;;;;;;;;;;16.50;37.79;99421.75;4413191;32;20021;-49
2021/03/14 10:00:30;;;;;;;;;;;;;;;16.48;37.84;99426.09;4416904;32;19993;-46
2021/03/14 10:02:56;;;;;;;;;;;;;;;16.52;37.88;99422.66;4416739;32;19997;-51
2021/03/14 10:05:21;;;;;;;;;;;;;;;16.56;37.70;99421.81;4414568;32;19969;-48
2021/03/14 10:07:48;;;;;;;;;;;;;;;16.58;37.79;99416.59;4417244;32;20682;-48
2021/03/14 10:10:14;;;;;;;;;;;;;;;16.57;37.74;99417.47;4415721;32;19985;-50
2021/03/14 10:12:40;;;;;;;;;;;;;;;16.56;37.71;99427.06;4415364;32;20001;-48
2021/03/14 10:15:06;;;;;;;;;;;;;;;16.64;37.58;99421.03;4415997;32;19992;-49
2021/03/14 10:17:32;;;;;;;;;;;;;;;16.56;37.65;99423.59;4415792;32;19946;-50
2021/03/14 10:19:58;;;;;;;;;;;;;;;16.55;37.76;99422.69;4415740;32;20000;-48
2021/03/14 10:22:24;;;;;;;;;;;;;;;16.56;37.73;99416.56;4413174;32;19991;-47
2021/03/14 10:24:49;;;;;;;;;;;;;;;16.63;37.64;99432.44;4413431;32;19965;-49
2021/03/14 10:27:15;;;;;;;;;;;;;;;16.59;37.65;99431.50;4412654;32;20330;-49
2021/03/14 10:29:43;;;;;;;;;;;;;;;16.65;37.56;99430.69;4411488;32;19978;-50
2021/03/14 10:32:09;;;;;;;;;;;;;;;16.67;37.45;99428.97;4412904;32;19958;-50
2021/03/14 10:34:35;;;;;;;;;;;;;;;16.63;37.58;99435.06;4414320;32;19968;-49
2021/03/14 10:37:01;;;;;;;;;;;;;;;16.60;37.60;99427.09;4404234;32;19954;-50
2021/03/14 10:39:27;;;;;;;;;;;;;;;16.68;37.50;99438.63;4400077;32;19962;-47
2021/03/14 10:41:52;;;;;;;;;;;;;;;16.65;37.42;99442.06;4399692;32;19963;-47
2021/03/14 10:44:18;;;;;;;;;;;;;;;16.66;37.50;99435.94;4397458;32;19971;-52
2021/03/14 10:46:50;;;;;;;;;;;;;;;16.63;37.48;99437.69;4402011;32;19973;-48
2021/03/14 10:49:16;;;;;;;;;;;;;;;16.58;37.51;99435.84;4396322;32;20027;-49
2021/03/14 10:51:42;;;;;;;;;;;;;;;16.68;37.44;99438.63;4398855;32;19963;-49
2021/03/14 10:54:08;;;;;;;;;;;;;;;16.60;37.45;99440.25;4406830;32;19962;-46
2021/03/14 10:56:34;;;;;;;;;;;;;;;16.63;37.48;99443.81;4414429;32;19989;-50
2021/03/14 10:59:00;;;;;;;;;;;;;;;16.66;37.38;99442.97;4411193;32;19966;-48
2021/03/14 11:01:37;;;;;;;;;;;;;;;16.56;37.53;99448.09;4414510;32;20002;-49
2021/03/14 11:04:03;;;;;;;;;;;;;;;16.58;37.41;99459.50;4413529;32;19978;-47
2021/03/14 11:06:29;;;;;;;;;;;;;;;16.55;37.53;99451.59;4414986;32;19962;-48
2021/03/14 11:08:56;;;;;;;;;;;;;;;16.57;37.52;99449.00;4414316;32;20005;-50
2021/03/14 11:11:26;;;;;;;;;;;;;;;16.64;37.43;99447.34;4414944;32;19974;-51
2021/03/14 11:13:52;;;;;;;;;;;;;;;16.66;37.40;99442.97;4411517;32;20837;-49
2021/03/14 11:16:17;;;;;;;;;;;;;;;16.57;37.55;99444.59;4414796;32;20006;-50
2021/03/14 11:18:43;;;;;;;;;;;;;;;16.60;37.54;99445.50;4412085;32;20017;-47
2021/03/14 11:21:09;;;;;;;;;;;;;;;16.67;37.52;99443.00;4412377;32;19965;-47
2021/03/14 11:23:35;;;;;;;;;;;;;;;16.79;37.27;99446.63;4413757;32;19966;-46
2021/03/14 11:26:02;;;;;;;;;;;;;;;16.77;37.12;99451.87;4413626;32;19988;-49
2021/03/14 11:28:27;;;;;;;;;;;;;;;16.71;37.32;99449.16;4406601;32;20959;-50
2021/03/14 11:30:55;;;;;;;;;;;;;;;16.69;37.15;99454.41;4413684;32;19993;-50
2021/03/14 11:33:21;;;;;;;;;;;;;;;16.71;37.12;99452.69;4414616;32;19962;-49
2021/03/14 11:35:47;;;;;;;;;;;;;;;16.70;37.13;99455.28;4413398;32;20002;-52
2021/03/14 11:38:13;;;;;;;;;;;;;;;16.66;37.19;99456.12;4413389;32;19982;-50
2021/03/14 11:40:39;;;;;;;;;;;;;;;16.57;37.50;99455.13;4414104;32;20015;-52
2021/03/14 11:43:05;;;;;;;;;;;;;;;16.32;38.02;99453.91;4408082;32;19958;-51
2021/03/14 11:45:31;;;;;;;;;;;;;;;16.53;37.79;99455.06;4412596;32;20051;-45
2021/03/14 11:47:57;;;;;;;;;;;;;;;16.58;37.55;99451.63;4412095;32;19961;-52
2021/03/14 11:50:23;;;;;;;;;;;;;;;16.63;37.44;99454.31;4413067;32;20113;-48
2021/03/14 11:52:49;;;;;;;;;;;;;;;16.55;37.63;99443.72;4414966;32;19981;-47
2021/03/14 11:55:15;;;;;;;;;;;;;;;16.65;37.51;99447.34;4413228;32;20540;-50
2021/03/14 11:57:41;;;;;;;;;;;;;;;16.65;37.58;99435.94;4410245;32;19980;-48
2021/03/14 12:00:07;;;;;;;;;;;;;;;16.71;37.46;99441.28;4413292;32;19990;-48
2021/03/14 12:02:33;;;;;;;;;;;;;;;16.49;37.92;99437.50;4413186;32;20333;-50
2021/03/14 12:04:59;;;;;;;;;;;;;;;16.66;37.69;99438.59;4413774;32;19995;-52
2021/03/14 12:07:26;;;;;;;;;;;;;;;16.68;37.88;99430.72;4414192;32;19977;-46
2021/03/14 12:09:52;;;;;;;;;;;;;;;16.76;37.67;99429.09;4413915;32;19966;-49
2021/03/14 12:12:17;;;;;;;;;;;;;;;16.84;37.61;99435.28;4412215;32;20001;-46
2021/03/14 12:14:44;;;;;;;;;;;;;;;16.81;37.61;99432.62;4414663;32;20075;-49
2021/03/14 12:17:11;;;;;;;;;;;;;;;16.80;37.62;99436.13;4413797;32;19958;-49
2021/03/14 12:19:37;;;;;;;;;;;;;;;16.80;37.78;99430.88;4407428;32;19958;-52
2021/03/14 12:22:03;;;;;;;;;;;;;;;16.75;37.89;99422.06;4410347;32;20004;-48
2021/03/14 12:24:29;;;;;;;;;;;;;;;16.79;37.58;99417.69;4413651;32;20013;-48
2021/03/14 12:26:55;;;;;;;;;;;;;;;16.71;37.95;99436.00;4413171;32;19971;-50
2021/03/14 12:29:21;;;;;;;;;;;;;;;16.74;37.96;99433.44;4413677;32;20019;-49
2021/03/14 12:31:47;;;;;;;;;;;;;;;16.82;37.83;99426.50;4413989;32;20017;-50
2021/03/14 12:34:14;;;;;;;;;;;;;;;16.78;37.84;99432.59;4412181;32;20072;-49
2021/03/14 12:36:40;;;;;;;;;;;;;;;16.69;38.22;99427.22;4413711;32;19955;-50
2021/03/14 12:39:07;;;;;;;;;;;;;;;16.77;38.14;99424.69;4412141;32;20032;-48
2021/03/14 12:41:33;;;;;;;;;;;;;;;16.71;38.06;99431.66;4412610;32;19966;-51